Terminal Aerodrome Forecast
Issued by NWS Melbourne, FL

Home | Current Version | Previous Version | Text Only | Print | Product List | Glossary On
Versions: 1 2 3 4 5 6 7 8 9 10 11 12 13 14 15 16 17 18 19 20 21 22
782
FTUS42 KMLB 291120
TAFMLB
TAF
KMLB 291120Z 2912/3012 09007KT P6SM FEW015 SCT025 SCT120
     FM291600 09010KT P6SM VCSH SCT035 SCT250
     FM292000 08010KT P6SM SCT035 SCT250
     FM300300 11004KT P6SM FEW015 SCT035 BKN250=

USA.gov is the U.S. government's official web portal to all federal, state and local government web resources and services.